createdAt,value
2022-11-28T00:01:32.403Z,92.12
2022-11-28T00:04:00.257Z,92.00
2022-11-28T00:06:28.796Z,91.17
2022-11-28T00:08:59.310Z,92.23
2022-11-28T00:11:27.793Z,92.78
2022-11-28T00:13:56.314Z,91.46
2022-11-28T00:16:25.206Z,92.01
2022-11-28T00:18:55.945Z,92.05
2022-11-28T00:21:24.899Z,91.54
2022-11-28T00:23:53.073Z,92.26
2022-11-28T00:26:25.410Z,92.03
2022-11-28T00:28:53.380Z,92.36
2022-11-28T00:31:22.904Z,92.83
2022-11-28T00:33:50.824Z,92.01
2022-11-28T00:36:20.783Z,91.96
2022-11-28T00:38:48.806Z,92.71
2022-11-28T00:41:18.670Z,92.25
2022-11-28T00:43:47.852Z,92.06
2022-11-28T00:46:16.609Z,92.29
2022-11-28T00:48:44.816Z,92.41
2022-11-28T00:51:14.370Z,91.80
2022-11-28T00:53:44.912Z,91.02
2022-11-28T00:56:14.717Z,92.13
2022-11-28T00:58:43.478Z,92.00
2022-11-28T01:01:13.045Z,92.52
2022-11-28T01:03:41.821Z,91.71
2022-11-28T01:06:10.898Z,92.05
2022-11-28T01:08:39.159Z,91.59
2022-11-28T01:11:13.954Z,91.85
2022-11-28T01:13:42.234Z,91.47
2022-11-28T01:16:10.581Z,91.89
2022-11-28T01:18:39.114Z,91.58
2022-11-28T01:21:07.976Z,90.65
2022-11-28T01:23:36.142Z,90.88
2022-11-28T01:26:05.251Z,92.05
2022-11-28T01:28:34.827Z,91.80
2022-11-28T01:31:06.453Z,91.12
2022-11-28T01:33:34.388Z,90.56
2022-11-28T01:36:02.766Z,91.77
2022-11-28T01:38:31.314Z,91.26
2022-11-28T01:40:59.570Z,91.06
2022-11-28T01:43:27.461Z,91.50
2022-11-28T01:45:57.180Z,92.05
2022-11-28T01:48:29.161Z,91.55
2022-11-28T01:50:59.801Z,91.12
2022-11-28T01:53:30.197Z,91.74
2022-11-28T01:56:03.224Z,91.92
2022-11-28T01:58:33.752Z,91.34
2022-11-28T02:01:03.728Z,91.14
2022-11-28T02:03:39.372Z,91.78
2022-11-28T02:06:07.611Z,92.02
2022-11-28T02:08:37.095Z,92.42
2022-11-28T02:11:22.553Z,91.63
2022-11-28T02:14:00.979Z,92.12
2022-11-28T02:16:44.377Z,92.60
2022-11-28T02:19:44.365Z,92.43
2022-11-28T02:22:18.172Z,92.87
2022-11-28T02:25:05.068Z,92.91
2022-11-28T02:28:12.063Z,92.24
2022-11-28T02:30:54.010Z,92.59
2022-11-28T02:33:28.552Z,92.61
2022-11-28T02:36:05.757Z,93.23
2022-11-28T02:38:47.254Z,92.42
2022-11-28T02:41:25.623Z,92.78
2022-11-28T02:44:01.477Z,93.00
2022-11-28T02:46:38.865Z,92.69
2022-11-28T02:49:13.727Z,92.63
2022-11-28T02:51:44.713Z,92.36
2022-11-28T02:54:14.612Z,93.46
2022-11-28T02:56:49.326Z,93.52
2022-11-28T02:59:32.348Z,93.59
2022-11-28T03:02:01.985Z,93.25
2022-11-28T03:04:43.108Z,93.17
2022-11-28T03:07:19.844Z,93.50
2022-11-28T03:10:10.738Z,93.70
2022-11-28T03:12:52.035Z,93.60
2022-11-28T03:15:25.082Z,93.62
2022-11-28T03:18:01.649Z,93.86
2022-11-28T03:20:43.947Z,94.48
2022-11-28T03:23:17.340Z,93.52
2022-11-28T03:25:57.249Z,93.84
2022-11-28T03:28:30.932Z,94.88
2022-11-28T03:31:02.196Z,93.77
2022-11-28T03:33:34.518Z,93.96
2022-11-28T03:36:07.514Z,94.32
2022-11-28T03:38:38.365Z,94.41
2022-11-28T03:41:11.869Z,94.58
2022-11-28T03:43:44.063Z,93.48
2022-11-28T03:46:17.030Z,93.35
2022-11-28T03:48:49.091Z,93.94
2022-11-28T03:51:21.985Z,93.21
2022-11-28T03:53:55.257Z,94.05
2022-11-28T03:56:27.610Z,94.81
2022-11-28T03:59:01.237Z,94.45
2022-11-28T04:01:34.405Z,94.45
2022-11-28T04:04:15.487Z,94.42
2022-11-28T04:06:55.347Z,93.25
2022-11-28T04:09:36.482Z,94.20
2022-11-28T04:12:10.948Z,94.47
2022-11-28T04:14:42.934Z,93.99
2022-11-28T04:17:17.915Z,92.63
2022-11-28T04:19:51.971Z,92.77
2022-11-28T04:22:25.684Z,93.54
2022-11-28T04:24:57.140Z,94.04
2022-11-28T04:27:30.107Z,93.91
2022-11-28T04:30:02.088Z,93.53
2022-11-28T04:32:32.877Z,92.00
2022-11-28T04:35:06.385Z,92.73
2022-11-28T04:37:38.457Z,92.24
2022-11-28T04:40:09.764Z,92.10
2022-11-28T04:42:42.922Z,92.63
2022-11-28T04:45:15.673Z,92.08
2022-11-28T04:47:44.391Z,91.95
2022-11-28T04:50:13.653Z,91.44
2022-11-28T04:52:47.962Z,92.79
2022-11-28T04:55:28.064Z,92.92
2022-11-28T04:58:01.181Z,92.82
2022-11-28T05:00:29.316Z,93.23
2022-11-28T05:02:58.076Z,92.81
2022-11-28T05:05:28.472Z,92.69
2022-11-28T05:07:59.059Z,92.73
2022-11-28T05:10:27.034Z,93.94
2022-11-28T05:12:54.955Z,93.46
2022-11-28T05:15:22.810Z,93.38
2022-11-28T05:17:50.671Z,94.09
2022-11-28T05:20:18.563Z,94.23
2022-11-28T05:22:46.433Z,94.31
2022-11-28T05:25:15.920Z,94.03
2022-11-28T05:27:43.818Z,94.78
2022-11-28T05:30:13.218Z,94.44
2022-11-28T05:32:41.296Z,94.99
2022-11-28T05:35:10.039Z,94.13
2022-11-28T05:37:38.801Z,94.71
2022-11-28T05:40:08.305Z,94.26
2022-11-28T05:42:37.880Z,94.57
2022-11-28T05:45:06.271Z,93.45
2022-11-28T05:47:34.577Z,93.63
2022-11-28T05:50:02.662Z,93.56
2022-11-28T05:52:32.313Z,93.67
2022-11-28T05:55:01.694Z,94.36
2022-11-28T05:57:32.029Z,94.57
2022-11-28T06:00:01.313Z,94.78
2022-11-28T06:02:29.485Z,94.45
2022-11-28T06:04:57.404Z,94.87
2022-11-28T06:07:25.646Z,94.98
2022-11-28T06:09:53.497Z,94.77
2022-11-28T06:12:21.345Z,94.62
2022-11-28T06:14:49.244Z,94.60
2022-11-28T06:17:18.576Z,95.54
2022-11-28T06:19:46.464Z,95.57
2022-11-28T06:22:14.592Z,95.49
2022-11-28T06:24:42.879Z,95.76
2022-11-28T06:27:10.700Z,95.93
2022-11-28T06:29:38.592Z,95.79
2022-11-28T06:32:06.775Z,95.56
2022-11-28T06:34:36.148Z,94.71
2022-11-28T06:37:04.110Z,94.27
2022-11-28T06:39:32.094Z,95.45
2022-11-28T06:41:59.949Z,95.10
2022-11-28T06:44:27.841Z,94.79
2022-11-28T06:46:55.922Z,93.82
2022-11-28T06:49:24.073Z,94.11
2022-11-28T06:51:53.338Z,94.17
2022-11-28T06:54:21.460Z,94.18
2022-11-28T06:56:49.512Z,93.67
2022-11-28T06:59:17.390Z,93.36
2022-11-28T07:01:45.425Z,93.67
2022-11-28T07:04:13.653Z,93.98
2022-11-28T07:06:41.668Z,94.66
2022-11-28T07:09:11.391Z,94.35
2022-11-28T07:11:43.010Z,94.98
2022-11-28T07:14:11.548Z,94.41
2022-11-28T07:16:39.589Z,94.07
2022-11-28T07:19:07.701Z,93.52
2022-11-28T07:21:35.605Z,93.64
2022-11-28T07:24:03.497Z,94.00
2022-11-28T07:26:33.977Z,93.14
2022-11-28T07:29:02.078Z,92.89
2022-11-28T07:31:32.602Z,93.10
2022-11-28T07:34:03.608Z,93.15
2022-11-28T07:36:32.439Z,92.73
2022-11-28T07:39:02.439Z,92.69
2022-11-28T07:41:32.112Z,93.56
2022-11-28T07:44:02.803Z,93.20
2022-11-28T07:46:32.628Z,93.22
2022-11-28T07:49:00.788Z,93.06
2022-11-28T07:51:30.989Z,92.02
2022-11-28T07:53:59.234Z,93.14
2022-11-28T07:56:44.353Z,93.44
2022-11-28T07:59:18.934Z,92.36
2022-11-28T08:01:46.866Z,92.73
2022-11-28T08:04:14.798Z,92.92
2022-11-28T08:06:44.391Z,92.74
2022-11-28T08:09:12.972Z,92.31
2022-11-28T08:11:43.076Z,92.32
2022-11-28T08:14:11.119Z,92.18
2022-11-28T08:16:45.066Z,92.89
2022-11-28T08:19:13.249Z,92.27
2022-11-28T08:21:41.144Z,92.54
2022-11-28T08:24:09.452Z,91.29
2022-11-28T08:26:37.803Z,91.92
2022-11-28T08:29:05.958Z,91.79
2022-11-28T08:31:36.092Z,92.09
2022-11-28T08:34:07.085Z,91.59
2022-11-28T08:36:35.225Z,91.25
2022-11-28T08:41:52.168Z,91.41
2022-11-28T08:44:20.028Z,90.96
2022-11-28T08:46:47.916Z,90.02
2022-11-28T08:49:17.186Z,90.92
2022-11-28T08:51:45.188Z,90.85
2022-11-28T08:54:13.437Z,89.47
2022-11-28T08:56:41.679Z,89.88
2022-11-28T08:59:10.568Z,88.58
2022-11-28T09:01:39.641Z,88.51
2022-11-28T09:04:07.724Z,89.41
2022-11-28T09:06:39.958Z,88.44
2022-11-28T09:09:09.159Z,88.23
2022-11-28T09:11:37.228Z,88.82
2022-11-28T09:14:05.405Z,87.39
2022-11-28T09:16:33.404Z,87.25
2022-11-28T09:19:01.407Z,87.20
2022-11-28T09:21:29.281Z,87.24
2022-11-28T09:23:58.558Z,89.52
2022-11-28T09:26:26.939Z,89.19
2022-11-28T09:28:55.157Z,88.48
2022-11-28T09:31:23.454Z,86.07
2022-11-28T09:33:51.518Z,86.31
2022-11-28T09:36:21.201Z,87.59
2022-11-28T09:38:49.715Z,87.89
2022-11-28T09:41:41.313Z,87.24
2022-11-28T09:44:19.133Z,86.21
2022-11-28T09:46:49.403Z,87.32
2022-11-28T09:49:41.089Z,87.48
2022-11-28T09:52:22.937Z,85.72
2022-11-28T09:54:58.633Z,84.40
2022-11-28T09:57:35.554Z,84.70
2022-11-28T10:00:05.328Z,85.44
2022-11-28T10:02:38.916Z,84.29
2022-11-28T10:05:16.580Z,84.10
2022-11-28T10:07:56.597Z,84.05
2022-11-28T10:10:34.137Z,82.95
2022-11-28T10:13:13.731Z,84.21
2022-11-28T10:15:49.415Z,84.63
2022-11-28T10:18:35.843Z,84.49
2022-11-28T10:21:10.737Z,83.03
2022-11-28T10:23:42.329Z,82.53
2022-11-28T10:26:18.028Z,83.48
2022-11-28T10:28:51.458Z,81.90
2022-11-28T10:31:28.425Z,83.04
2022-11-28T10:34:00.259Z,81.10
2022-11-28T10:36:32.051Z,82.44
2022-11-28T10:39:06.185Z,82.16
2022-11-28T10:41:42.077Z,82.31
2022-11-28T10:44:23.815Z,81.69
2022-11-28T10:47:00.191Z,81.12
2022-11-28T10:49:41.220Z,79.79
2022-11-28T10:52:16.370Z,80.69
2022-11-28T10:55:06.121Z,80.30
2022-11-28T10:57:40.898Z,81.09
2022-11-28T11:00:14.414Z,78.75
2022-11-28T11:02:46.563Z,80.31
2022-11-28T11:05:16.756Z,78.63
2022-11-28T11:07:50.432Z,78.60
2022-11-28T11:10:20.514Z,79.30
2022-11-28T11:12:51.348Z,78.05
2022-11-28T11:15:24.740Z,78.43
2022-11-28T11:17:52.782Z,79.37
2022-11-28T11:20:30.482Z,80.59
2022-11-28T11:22:59.415Z,80.31
2022-11-28T11:25:29.279Z,78.40
2022-11-28T11:28:01.035Z,77.40
2022-11-28T11:30:32.114Z,76.88
2022-11-28T11:33:01.638Z,76.25
2022-11-28T11:35:35.662Z,76.99
2022-11-28T11:38:18.320Z,77.09
2022-11-28T11:40:46.610Z,78.93
2022-11-28T11:43:28.767Z,78.50
2022-11-28T11:46:09.355Z,78.84
2022-11-28T11:48:40.138Z,79.02
2022-11-28T11:51:08.822Z,78.68
2022-11-28T11:53:36.731Z,78.98
2022-11-28T11:56:05.473Z,78.34
2022-11-28T11:58:41.802Z,77.86
2022-11-28T12:01:13.024Z,78.22
2022-11-28T12:03:42.944Z,79.07
2022-11-28T12:06:16.947Z,78.61
2022-11-28T12:08:51.402Z,78.19
2022-11-28T12:11:25.286Z,79.23
2022-11-28T12:13:54.010Z,79.05
2022-11-28T12:16:41.230Z,79.29
2022-11-28T12:19:21.471Z,78.73
2022-11-28T12:22:03.858Z,80.20
2022-11-28T12:24:41.587Z,80.60
2022-11-28T12:27:26.409Z,78.80
2022-11-28T12:30:06.599Z,79.15
2022-11-28T12:32:48.979Z,78.52
2022-11-28T12:35:28.728Z,79.05
2022-11-28T12:38:12.071Z,79.23
2022-11-28T12:40:51.130Z,78.52
2022-11-28T12:43:30.051Z,78.33
2022-11-28T12:46:05.585Z,77.78
2022-11-28T12:48:52.995Z,79.38
2022-11-28T12:51:32.463Z,78.22
2022-11-28T12:54:14.427Z,78.88
2022-11-28T12:56:49.776Z,80.87
2022-11-28T12:59:25.925Z,79.75
2022-11-28T13:02:08.220Z,79.77
2022-11-28T13:05:10.752Z,79.63
2022-11-28T13:07:48.483Z,81.44
2022-11-28T13:10:25.873Z,79.67
2022-11-28T13:13:00.507Z,80.07
2022-11-28T13:15:45.751Z,80.42
2022-11-28T13:18:30.308Z,80.60
2022-11-28T13:21:08.025Z,80.15
2022-11-28T13:23:46.425Z,80.01
2022-11-28T13:26:24.831Z,81.01
2022-11-28T13:29:00.428Z,80.10
2022-11-28T13:31:32.865Z,80.98
2022-11-28T13:34:01.845Z,80.24
2022-11-28T13:39:36.995Z,79.38
2022-11-28T13:42:59.037Z,80.42
2022-11-28T13:45:26.707Z,81.94
2022-11-28T13:48:00.949Z,81.50
2022-11-28T13:50:40.918Z,80.89
2022-11-28T13:53:29.955Z,80.36
2022-11-28T13:56:28.142Z,80.39
2022-11-28T13:59:00.764Z,80.79
2022-11-28T14:01:31.296Z,82.44
2022-11-28T14:04:12.376Z,82.05
2022-11-28T14:06:46.024Z,82.31
2022-11-28T14:09:29.755Z,82.83
2022-11-28T14:12:20.450Z,83.30
2022-11-28T14:15:08.916Z,83.26
2022-11-28T14:18:31.901Z,83.70
2022-11-28T14:21:04.484Z,85.04
2022-11-28T14:23:43.169Z,84.56
2022-11-28T14:26:20.772Z,84.95
2022-11-28T14:28:51.896Z,85.64
2022-11-28T14:31:32.128Z,85.33
2022-11-28T14:34:02.657Z,85.73
2022-11-28T14:36:34.233Z,86.38
2022-11-28T14:39:10.741Z,86.25
2022-11-28T14:42:30.473Z,86.37
2022-11-28T14:45:25.312Z,86.79
2022-11-28T14:48:18.696Z,86.13
2022-11-28T14:50:59.086Z,87.14
2022-11-28T14:53:50.040Z,88.04
2022-11-28T14:56:29.691Z,88.58
2022-11-28T14:59:01.485Z,88.68
2022-11-28T15:01:46.301Z,88.98
2022-11-28T15:04:48.968Z,88.21
2022-11-28T15:07:27.840Z,87.78
2022-11-28T15:10:07.805Z,87.72
2022-11-28T15:12:44.730Z,89.00
2022-11-28T15:15:17.041Z,88.56
2022-11-28T15:17:48.689Z,88.86
2022-11-28T15:20:25.264Z,89.17
2022-11-28T15:22:53.487Z,89.16
2022-11-28T15:25:22.517Z,89.44
2022-11-28T15:27:50.922Z,88.31
2022-11-28T15:30:20.659Z,88.84
2022-11-28T15:32:49.203Z,88.71
2022-11-28T15:35:19.549Z,88.66
2022-11-28T15:37:50.030Z,89.76
2022-11-28T15:40:21.639Z,89.24
2022-11-28T15:42:51.279Z,89.80
2022-11-28T15:45:25.549Z,89.85
2022-11-28T15:47:55.283Z,89.56
2022-11-28T15:50:27.040Z,89.70
2022-11-28T15:52:56.730Z,90.75
2022-11-28T15:55:25.072Z,91.38
2022-11-28T15:57:53.023Z,90.83
2022-11-28T16:00:22.088Z,91.52
2022-11-28T16:02:50.188Z,91.16
2022-11-28T16:05:21.880Z,91.09
2022-11-28T16:07:52.466Z,91.41
2022-11-28T16:10:25.957Z,90.85
2022-11-28T16:12:59.216Z,91.82
2022-11-28T16:15:28.230Z,91.92
2022-11-28T16:17:57.122Z,92.02
2022-11-28T16:20:27.604Z,91.81
2022-11-28T16:23:02.605Z,92.33
2022-11-28T16:25:32.615Z,92.74
2022-11-28T16:28:00.783Z,92.86
2022-11-28T16:30:34.731Z,93.08
2022-11-28T16:33:02.608Z,93.41
2022-11-28T16:35:33.884Z,93.54
2022-11-28T16:38:17.565Z,93.53
2022-11-28T16:40:46.049Z,93.08
2022-11-28T16:43:22.325Z,92.36
2022-11-28T16:45:59.649Z,93.87
2022-11-28T16:48:29.771Z,92.82
2022-11-28T16:51:40.792Z,93.64
2022-11-28T16:54:30.673Z,93.73
2022-11-28T16:57:10.431Z,93.88
2022-11-28T16:59:38.429Z,93.83
2022-11-28T17:02:14.355Z,93.25
2022-11-28T17:04:42.424Z,93.39
2022-11-28T17:07:14.083Z,94.09
2022-11-28T17:09:44.553Z,94.38
2022-11-28T17:12:21.042Z,93.86
2022-11-28T17:14:48.906Z,94.72
2022-11-28T17:17:18.110Z,95.23
2022-11-28T17:19:47.339Z,95.52
2022-11-28T17:22:17.969Z,95.10
2022-11-28T17:24:48.359Z,94.64
2022-11-28T17:27:17.384Z,95.09
2022-11-28T17:29:45.470Z,95.73
2022-11-28T17:32:14.908Z,95.07
2022-11-28T17:34:43.694Z,95.84
2022-11-28T17:37:11.956Z,96.44
2022-11-28T17:39:39.961Z,96.50
2022-11-28T17:42:11.010Z,96.64
2022-11-28T17:44:39.423Z,97.13
2022-11-28T17:47:07.496Z,98.04
2022-11-28T17:49:35.413Z,97.41
2022-11-28T17:52:03.723Z,97.54
2022-11-28T17:54:31.926Z,98.17
2022-11-28T17:57:00.511Z,98.11
2022-11-28T17:59:30.745Z,99.15
2022-11-28T18:01:58.937Z,98.05
2022-11-28T18:04:27.331Z,98.79
2022-11-28T18:06:58.210Z,99.19
2022-11-28T18:09:27.001Z,99.75
2022-11-28T18:11:54.871Z,100.00
2022-11-28T18:14:22.808Z,100.00
2022-11-28T18:16:52.390Z,100.00
2022-11-28T18:19:20.375Z,100.00
2022-11-28T18:21:48.389Z,100.00
2022-11-28T18:24:16.454Z,100.00
2022-11-28T18:26:44.654Z,100.00
2022-11-28T18:29:13.091Z,100.00
2022-11-28T18:31:41.534Z,100.00
2022-11-28T18:34:11.305Z,100.00
2022-11-28T18:36:39.709Z,100.00
2022-11-28T18:39:09.900Z,100.00
2022-11-28T18:41:39.998Z,100.00
2022-11-28T18:44:08.247Z,100.00
2022-11-28T18:46:36.432Z,100.00
2022-11-28T18:49:04.427Z,100.00
2022-11-28T18:51:34.913Z,100.00
2022-11-28T18:54:04.921Z,100.00
2022-11-28T18:56:34.273Z,100.00
2022-11-28T18:59:02.241Z,100.00
2022-11-28T19:01:32.306Z,100.00
2022-11-28T19:04:02.194Z,100.00
2022-11-28T19:06:30.639Z,100.00
2022-11-28T19:09:01.914Z,100.00
2022-11-28T19:11:30.534Z,100.00
2022-11-28T19:13:59.319Z,100.00
2022-11-28T19:16:29.925Z,100.00
2022-11-28T19:18:58.442Z,100.00
2022-11-28T19:21:28.857Z,100.00
2022-11-28T19:23:57.262Z,100.00
2022-11-28T19:26:29.099Z,100.00
2022-11-28T19:28:59.926Z,100.00
2022-11-28T19:31:29.632Z,100.00
2022-11-28T19:34:01.883Z,100.00
2022-11-28T19:36:31.078Z,100.00
2022-11-28T19:38:59.083Z,100.00
2022-11-28T19:41:30.452Z,100.00
2022-11-28T19:43:58.390Z,100.00
2022-11-28T19:46:31.857Z,100.00
2022-11-28T19:49:03.379Z,100.00
2022-11-28T19:51:31.338Z,100.00
2022-11-28T19:54:03.518Z,100.00
2022-11-28T19:56:33.854Z,100.00
2022-11-28T19:59:02.058Z,100.00
2022-11-28T20:01:29.986Z,100.00
2022-11-28T20:03:59.349Z,100.00
2022-11-28T20:06:29.063Z,100.00
2022-11-28T20:09:00.272Z,100.00
2022-11-28T20:11:30.254Z,100.00
2022-11-28T20:14:01.424Z,100.00
2022-11-28T20:16:30.632Z,100.00
2022-11-28T20:19:00.389Z,100.00
2022-11-28T20:21:29.218Z,100.00
2022-11-28T20:24:02.620Z,100.00
2022-11-28T20:26:30.892Z,100.00
2022-11-28T20:29:00.800Z,100.00
2022-11-28T20:31:33.794Z,100.00
2022-11-28T20:34:02.704Z,100.00
2022-11-28T20:36:32.601Z,100.00
2022-11-28T20:39:00.884Z,100.00
2022-11-28T20:41:30.012Z,100.00
2022-11-28T20:44:00.157Z,100.00
2022-11-28T20:46:32.010Z,100.00
2022-11-28T20:49:01.741Z,100.00
2022-11-28T20:51:31.157Z,100.00
2022-11-28T20:54:00.112Z,100.00
2022-11-28T20:56:30.738Z,100.00
2022-11-28T20:59:00.953Z,100.00
2022-11-28T21:01:33.272Z,100.00
2022-11-28T21:04:02.392Z,100.00
2022-11-28T21:06:30.832Z,100.00
2022-11-28T21:08:58.794Z,100.00
2022-11-28T21:14:15.561Z,100.00
2022-11-28T21:16:44.963Z,100.00
2022-11-28T21:19:13.986Z,100.00
2022-11-28T21:21:42.886Z,100.00
2022-11-28T21:24:13.897Z,100.00
2022-11-28T21:26:47.885Z,100.00
2022-11-28T21:29:19.847Z,100.00
2022-11-28T21:31:49.254Z,100.00
2022-11-28T21:34:19.371Z,100.00
2022-11-28T21:36:47.471Z,100.00
2022-11-28T21:39:17.655Z,100.00
2022-11-28T21:41:45.640Z,100.00
2022-11-28T21:44:13.547Z,100.00
2022-11-28T21:46:41.473Z,100.00
2022-11-28T21:49:11.115Z,100.00
2022-11-28T21:51:45.895Z,100.00
2022-11-28T21:54:14.224Z,100.00
2022-11-28T21:56:42.626Z,100.00
2022-11-28T21:59:10.563Z,100.00
2022-11-28T22:01:38.669Z,100.00
2022-11-28T22:04:06.947Z,100.00
2022-11-28T22:06:36.234Z,100.00
2022-11-28T22:09:09.445Z,100.00
2022-11-28T22:11:38.516Z,100.00
2022-11-28T22:14:06.427Z,100.00
2022-11-28T22:16:34.337Z,100.00
2022-11-28T22:19:02.449Z,100.00
2022-11-28T22:24:19.789Z,100.00
2022-11-28T22:26:47.706Z,100.00
2022-11-28T22:29:15.694Z,100.00
2022-11-28T22:31:43.652Z,100.00
2022-11-28T22:34:11.925Z,100.00
2022-11-28T22:36:40.433Z,100.00
2022-11-28T22:39:08.293Z,100.00
2022-11-28T22:41:37.529Z,100.00
2022-11-28T22:44:05.674Z,100.00
2022-11-28T22:46:34.243Z,100.00
2022-11-28T22:49:02.846Z,100.00
2022-11-28T22:51:31.535Z,100.00
2022-11-28T22:54:01.275Z,100.00
2022-11-28T22:56:29.707Z,100.00
2022-11-28T22:58:59.319Z,100.00
2022-11-28T23:01:29.669Z,100.00
2022-11-28T23:03:58.008Z,100.00
2022-11-28T23:06:28.074Z,100.00
2022-11-28T23:08:56.838Z,100.00
2022-11-28T23:11:26.633Z,100.00
2022-11-28T23:13:55.040Z,100.00
2022-11-28T23:16:26.040Z,100.00
2022-11-28T23:18:55.737Z,100.00
2022-11-28T23:21:24.959Z,100.00
2022-11-28T23:23:53.151Z,100.00
2022-11-28T23:26:24.405Z,100.00
2022-11-28T23:28:52.753Z,100.00
2022-11-28T23:31:22.968Z,100.00
2022-11-28T23:33:53.544Z,100.00
2022-11-28T23:36:24.036Z,100.00
2022-11-28T23:38:53.853Z,100.00
2022-11-28T23:41:21.813Z,100.00
2022-11-28T23:43:50.174Z,100.00
2022-11-28T23:46:19.401Z,100.00
2022-11-28T23:48:48.659Z,100.00
2022-11-28T23:51:19.594Z,100.00
2022-11-28T23:53:47.567Z,100.00
2022-11-28T23:56:18.635Z,100.00
2022-11-28T23:58:46.855Z,100.00
